sensor_id;sensor_type;location;lat;lon;timestamp;temperature;humidity
23609;DHT22;11982;50.810;4.442;2024-01-15T00:02:06;1.60;99.90
23609;DHT22;11982;50.810;4.442;2024-01-15T00:04:39;1.60;99.90
23609;DHT22;11982;50.810;4.442;2024-01-15T00:07:06;1.60;99.90
23609;DHT22;11982;50.810;4.442;2024-01-15T00:09:32;1.60;99.90
23609;DHT22;11982;50.810;4.442;2024-01-15T00:11:59;1.60;99.90
23609;DHT22;11982;50.810;4.442;2024-01-15T00:14:25;1.60;99.90
23609;DHT22;11982;50.810;4.442;2024-01-15T00:16:50;1.70;99.90
23609;DHT22;11982;50.810;4.442;2024-01-15T00:19:17;1.70;99.90
23609;DHT22;11982;50.810;4.442;2024-01-15T00:21:43;1.70;99.90
23609;DHT22;11982;50.810;4.442;2024-01-15T00:24:09;1.70;99.90
23609;DHT22;11982;50.810;4.442;2024-01-15T00:26:34;1.80;99.90
23609;DHT22;11982;50.810;4.442;2024-01-15T00:29:00;1.70;99.90
23609;DHT22;11982;50.810;4.442;2024-01-15T00:31:26;1.80;99.90
23609;DHT22;11982;50.810;4.442;2024-01-15T00:33:51;1.80;99.90
23609;DHT22;11982;50.810;4.442;2024-01-15T00:36:17;1.80;99.90
23609;DHT22;11982;50.810;4.442;2024-01-15T00:38:44;1.80;99.90
23609;DHT22;11982;50.810;4.442;2024-01-15T00:41:09;1.80;99.90
23609;DHT22;11982;50.810;4.442;2024-01-15T00:43:35;1.70;99.90
23609;DHT22;11982;50.810;4.442;2024-01-15T00:46:04;1.80;99.90
23609;DHT22;11982;50.810;4.442;2024-01-15T00:48:30;1.80;99.90
23609;DHT22;11982;50.810;4.442;2024-01-15T00:50:56;1.70;99.90
23609;DHT22;11982;50.810;4.442;2024-01-15T00:53:21;1.80;99.90
23609;DHT22;11982;50.810;4.442;2024-01-15T00:55:48;1.80;99.90
23609;DHT22;11982;50.810;4.442;2024-01-15T00:58:14;1.80;99.90
23609;DHT22;11982;50.810;4.442;2024-01-15T01:00:39;1.80;99.90
23609;DHT22;11982;50.810;4.442;2024-01-15T01:03:06;1.80;99.90
23609;DHT22;11982;50.810;4.442;2024-01-15T01:05:32;1.90;99.90
23609;DHT22;11982;50.810;4.442;2024-01-15T01:07:58;1.90;99.90
23609;DHT22;11982;50.810;4.442;2024-01-15T01:10:24;1.90;99.90
23609;DHT22;11982;50.810;4.442;2024-01-15T01:12:49;1.90;99.90
23609;DHT22;11982;50.810;4.442;2024-01-15T01:15:16;2.00;99.90
23609;DHT22;11982;50.810;4.442;2024-01-15T01:17:41;2.00;99.90
23609;DHT22;11982;50.810;4.442;2024-01-15T01:20:08;1.90;99.90
23609;DHT22;11982;50.810;4.442;2024-01-15T01:22:34;1.90;99.90
23609;DHT22;11982;50.810;4.442;2024-01-15T01:25:00;2.00;99.90
23609;DHT22;11982;50.810;4.442;2024-01-15T01:27:26;2.00;99.90
23609;DHT22;11982;50.810;4.442;2024-01-15T01:29:52;2.00;99.90
23609;DHT22;11982;50.810;4.442;2024-01-15T01:32:18;1.90;99.90
23609;DHT22;11982;50.810;4.442;2024-01-15T01:34:44;2.00;99.90
23609;DHT22;11982;50.810;4.442;2024-01-15T01:37:10;1.90;99.90
23609;DHT22;11982;50.810;4.442;2024-01-15T01:39:39;1.90;99.90
23609;DHT22;11982;50.810;4.442;2024-01-15T01:42:05;2.00;99.90
23609;DHT22;11982;50.810;4.442;2024-01-15T01:44:31;1.90;99.90
23609;DHT22;11982;50.810;4.442;2024-01-15T01:46:58;1.90;99.90
23609;DHT22;11982;50.810;4.442;2024-01-15T01:49:25;1.90;99.90
23609;DHT22;11982;50.810;4.442;2024-01-15T01:51:51;1.90;99.90
23609;DHT22;11982;50.810;4.442;2024-01-15T01:54:18;1.90;99.90
23609;DHT22;11982;50.810;4.442;2024-01-15T01:56:45;1.90;99.90
23609;DHT22;11982;50.810;4.442;2024-01-15T01:59:12;1.90;99.90
23609;DHT22;11982;50.810;4.442;2024-01-15T02:01:39;2.00;99.90
23609;DHT22;11982;50.810;4.442;2024-01-15T02:04:05;2.00;99.90
23609;DHT22;11982;50.810;4.442;2024-01-15T02:06:31;2.00;99.90
23609;DHT22;11982;50.810;4.442;2024-01-15T02:08:56;1.90;99.90
23609;DHT22;11982;50.810;4.442;2024-01-15T02:11:22;1.90;99.90
23609;DHT22;11982;50.810;4.442;2024-01-15T02:13:48;1.90;99.90
23609;DHT22;11982;50.810;4.442;2024-01-15T02:16:14;2.00;99.90
23609;DHT22;11982;50.810;4.442;2024-01-15T02:18:44;2.00;99.90
23609;DHT22;11982;50.810;4.442;2024-01-15T02:21:10;2.00;99.90
23609;DHT22;11982;50.810;4.442;2024-01-15T02:23:36;2.00;99.90
23609;DHT22;11982;50.810;4.442;2024-01-15T02:26:03;1.90;99.90
23609;DHT22;11982;50.810;4.442;2024-01-15T02:28:29;1.90;99.90
23609;DHT22;11982;50.810;4.442;2024-01-15T02:30:55;1.90;99.90
23609;DHT22;11982;50.810;4.442;2024-01-15T02:33:21;1.90;99.90
23609;DHT22;11982;50.810;4.442;2024-01-15T02:35:46;1.90;99.90
23609;DHT22;11982;50.810;4.442;2024-01-15T02:38:15;1.90;99.90
23609;DHT22;11982;50.810;4.442;2024-01-15T02:40:42;1.90;99.90
23609;DHT22;11982;50.810;4.442;2024-01-15T02:43:08;1.90;99.90
23609;DHT22;11982;50.810;4.442;2024-01-15T02:45:34;1.90;99.90
23609;DHT22;11982;50.810;4.442;2024-01-15T02:48:00;1.90;99.90
23609;DHT22;11982;50.810;4.442;2024-01-15T02:50:26;1.90;99.90
23609;DHT22;11982;50.810;4.442;2024-01-15T02:52:51;2.00;99.90
23609;DHT22;11982;50.810;4.442;2024-01-15T02:55:17;2.00;99.90
23609;DHT22;11982;50.810;4.442;2024-01-15T02:57:43;2.00;99.90
23609;DHT22;11982;50.810;4.442;2024-01-15T03:00:09;2.10;99.90
23609;DHT22;11982;50.810;4.442;2024-01-15T03:02:39;2.00;99.90
23609;DHT22;11982;50.810;4.442;2024-01-15T03:05:08;2.00;99.90
23609;DHT22;11982;50.810;4.442;2024-01-15T03:07:34;2.00;99.90
23609;DHT22;11982;50.810;4.442;2024-01-15T03:10:00;2.00;99.90
23609;DHT22;11982;50.810;4.442;2024-01-15T03:12:26;1.90;99.90
23609;DHT22;11982;50.810;4.442;2024-01-15T03:14:51;2.00;99.90
23609;DHT22;11982;50.810;4.442;2024-01-15T03:17:17;2.00;99.90
23609;DHT22;11982;50.810;4.442;2024-01-15T03:19:43;1.90;99.90
23609;DHT22;11982;50.810;4.442;2024-01-15T03:22:08;1.90;99.90
23609;DHT22;11982;50.810;4.442;2024-01-15T03:24:35;1.90;99.90
23609;DHT22;11982;50.810;4.442;2024-01-15T03:27:01;1.90;99.90
23609;DHT22;11982;50.810;4.442;2024-01-15T03:29:27;1.90;99.90
23609;DHT22;11982;50.810;4.442;2024-01-15T03:31:52;2.00;99.90
23609;DHT22;11982;50.810;4.442;2024-01-15T03:34:18;1.90;99.90
23609;DHT22;11982;50.810;4.442;2024-01-15T03:36:44;1.90;99.90
23609;DHT22;11982;50.810;4.442;2024-01-15T03:39:10;1.90;99.90
23609;DHT22;11982;50.810;4.442;2024-01-15T03:41:36;1.90;99.90
23609;DHT22;11982;50.810;4.442;2024-01-15T03:44:01;1.90;99.90
23609;DHT22;11982;50.810;4.442;2024-01-15T03:46:27;1.80;99.90
23609;DHT22;11982;50.810;4.442;2024-01-15T03:48:53;1.80;99.90
23609;DHT22;11982;50.810;4.442;2024-01-15T03:51:19;1.70;99.90
23609;DHT22;11982;50.810;4.442;2024-01-15T03:53:45;1.70;99.90
23609;DHT22;11982;50.810;4.442;2024-01-15T03:56:11;1.70;99.90
23609;DHT22;11982;50.810;4.442;2024-01-15T03:58:36;1.70;99.90
23609;DHT22;11982;50.810;4.442;2024-01-15T04:01:02;1.80;99.90
23609;DHT22;11982;50.810;4.442;2024-01-15T04:03:28;1.80;99.90
23609;DHT22;11982;50.810;4.442;2024-01-15T04:05:54;1.80;99.90
23609;DHT22;11982;50.810;4.442;2024-01-15T04:08:19;1.80;99.90
23609;DHT22;11982;50.810;4.442;2024-01-15T04:10:45;1.80;99.90
23609;DHT22;11982;50.810;4.442;2024-01-15T04:13:11;1.80;99.90
23609;DHT22;11982;50.810;4.442;2024-01-15T04:15:38;1.80;99.90
23609;DHT22;11982;50.810;4.442;2024-01-15T04:18:03;1.80;99.90
23609;DHT22;11982;50.810;4.442;2024-01-15T04:20:29;1.80;99.90
23609;DHT22;11982;50.810;4.442;2024-01-15T04:22:55;1.80;99.90
23609;DHT22;11982;50.810;4.442;2024-01-15T04:25:20;1.80;99.90
23609;DHT22;11982;50.810;4.442;2024-01-15T04:27:46;1.80;99.90
23609;DHT22;11982;50.810;4.442;2024-01-15T04:30:12;1.80;99.90
23609;DHT22;11982;50.810;4.442;2024-01-15T04:32:38;1.90;99.90
23609;DHT22;11982;50.810;4.442;2024-01-15T04:35:03;1.90;99.90
23609;DHT22;11982;50.810;4.442;2024-01-15T04:37:29;1.90;99.90
23609;DHT22;11982;50.810;4.442;2024-01-15T04:39:55;1.90;99.90
23609;DHT22;11982;50.810;4.442;2024-01-15T04:42:23;1.80;99.90
23609;DHT22;11982;50.810;4.442;2024-01-15T04:44:48;1.80;99.90
23609;DHT22;11982;50.810;4.442;2024-01-15T04:47:14;1.80;99.90
23609;DHT22;11982;50.810;4.442;2024-01-15T04:49:40;1.90;99.90
23609;DHT22;11982;50.810;4.442;2024-01-15T04:52:05;1.80;99.90
23609;DHT22;11982;50.810;4.442;2024-01-15T04:54:31;1.80;99.90
23609;DHT22;11982;50.810;4.442;2024-01-15T04:56:57;1.80;99.90
23609;DHT22;11982;50.810;4.442;2024-01-15T04:59:23;1.80;99.90
23609;DHT22;11982;50.810;4.442;2024-01-15T05:01:48;1.80;99.90
23609;DHT22;11982;50.810;4.442;2024-01-15T05:04:14;1.80;99.90
23609;DHT22;11982;50.810;4.442;2024-01-15T05:06:40;1.80;99.90
23609;DHT22;11982;50.810;4.442;2024-01-15T05:09:05;1.80;99.90
23609;DHT22;11982;50.810;4.442;2024-01-15T05:11:32;1.70;99.90
23609;DHT22;11982;50.810;4.442;2024-01-15T05:13:58;1.80;99.90
23609;DHT22;11982;50.810;4.442;2024-01-15T05:16:23;1.80;99.90
23609;DHT22;11982;50.810;4.442;2024-01-15T05:18:49;1.80;99.90
23609;DHT22;11982;50.810;4.442;2024-01-15T05:21:15;1.80;99.90
23609;DHT22;11982;50.810;4.442;2024-01-15T05:23:40;1.90;99.90
23609;DHT22;11982;50.810;4.442;2024-01-15T05:26:06;1.70;99.90
23609;DHT22;11982;50.810;4.442;2024-01-15T05:28:32;1.60;99.90
23609;DHT22;11982;50.810;4.442;2024-01-15T05:30:57;1.50;99.90
23609;DHT22;11982;50.810;4.442;2024-01-15T05:33:23;1.50;99.90
23609;DHT22;11982;50.810;4.442;2024-01-15T05:35:49;1.50;99.90
23609;DHT22;11982;50.810;4.442;2024-01-15T05:38:16;1.50;99.90
23609;DHT22;11982;50.810;4.442;2024-01-15T05:40:42;1.40;99.90
23609;DHT22;11982;50.810;4.442;2024-01-15T05:43:07;1.40;99.90
23609;DHT22;11982;50.810;4.442;2024-01-15T05:45:34;1.40;99.90
23609;DHT22;11982;50.810;4.442;2024-01-15T05:48:01;1.40;99.90
23609;DHT22;11982;50.810;4.442;2024-01-15T05:50:26;1.40;99.90
23609;DHT22;11982;50.810;4.442;2024-01-15T05:52:52;1.40;99.90
23609;DHT22;11982;50.810;4.442;2024-01-15T05:55:18;1.40;99.90
23609;DHT22;11982;50.810;4.442;2024-01-15T05:57:44;1.40;99.90
23609;DHT22;11982;50.810;4.442;2024-01-15T06:00:10;1.40;99.90
23609;DHT22;11982;50.810;4.442;2024-01-15T06:02:39;1.40;99.90
23609;DHT22;11982;50.810;4.442;2024-01-15T06:05:05;1.40;99.90
23609;DHT22;11982;50.810;4.442;2024-01-15T06:07:33;1.30;99.90
23609;DHT22;11982;50.810;4.442;2024-01-15T06:09:59;1.30;99.90
23609;DHT22;11982;50.810;4.442;2024-01-15T06:12:24;1.40;99.90
23609;DHT22;11982;50.810;4.442;2024-01-15T06:14:50;1.30;99.90
23609;DHT22;11982;50.810;4.442;2024-01-15T06:17:17;1.20;99.90
23609;DHT22;11982;50.810;4.442;2024-01-15T06:19:43;1.20;99.90
23609;DHT22;11982;50.810;4.442;2024-01-15T06:22:09;1.30;99.90
23609;DHT22;11982;50.810;4.442;2024-01-15T06:24:35;1.20;99.90
23609;DHT22;11982;50.810;4.442;2024-01-15T06:27:00;1.10;99.90
23609;DHT22;11982;50.810;4.442;2024-01-15T06:29:26;1.10;99.90
23609;DHT22;11982;50.810;4.442;2024-01-15T06:31:54;1.10;99.90
23609;DHT22;11982;50.810;4.442;2024-01-15T06:34:20;1.00;99.90
23609;DHT22;11982;50.810;4.442;2024-01-15T06:36:46;1.00;99.90
23609;DHT22;11982;50.810;4.442;2024-01-15T06:39:12;1.00;99.90
23609;DHT22;11982;50.810;4.442;2024-01-15T06:41:37;1.00;99.90
23609;DHT22;11982;50.810;4.442;2024-01-15T06:44:12;0.90;99.90
23609;DHT22;11982;50.810;4.442;2024-01-15T06:46:45;0.90;99.90
23609;DHT22;11982;50.810;4.442;2024-01-15T06:49:11;0.90;99.90
23609;DHT22;11982;50.810;4.442;2024-01-15T06:51:37;0.90;99.90
23609;DHT22;11982;50.810;4.442;2024-01-15T06:54:03;0.90;99.90
23609;DHT22;11982;50.810;4.442;2024-01-15T06:56:29;0.90;99.90
23609;DHT22;11982;50.810;4.442;2024-01-15T06:58:54;0.90;99.90
23609;DHT22;11982;50.810;4.442;2024-01-15T07:01:20;0.80;99.90
23609;DHT22;11982;50.810;4.442;2024-01-15T07:03:46;0.80;99.90
23609;DHT22;11982;50.810;4.442;2024-01-15T07:06:12;0.80;99.90
23609;DHT22;11982;50.810;4.442;2024-01-15T07:08:39;0.80;99.90
23609;DHT22;11982;50.810;4.442;2024-01-15T07:11:05;0.80;99.90
23609;DHT22;11982;50.810;4.442;2024-01-15T07:13:31;0.70;99.90
23609;DHT22;11982;50.810;4.442;2024-01-15T07:15:57;0.80;99.90
23609;DHT22;11982;50.810;4.442;2024-01-15T07:18:23;0.70;99.90
23609;DHT22;11982;50.810;4.442;2024-01-15T07:20:49;0.70;99.90
23609;DHT22;11982;50.810;4.442;2024-01-15T07:23:14;0.70;99.90
23609;DHT22;11982;50.810;4.442;2024-01-15T07:25:40;0.70;99.90
23609;DHT22;11982;50.810;4.442;2024-01-15T07:28:06;0.70;99.90
23609;DHT22;11982;50.810;4.442;2024-01-15T07:30:32;0.70;99.90
23609;DHT22;11982;50.810;4.442;2024-01-15T07:32:57;0.70;99.90
23609;DHT22;11982;50.810;4.442;2024-01-15T07:35:23;0.70;99.90
23609;DHT22;11982;50.810;4.442;2024-01-15T07:37:49;0.70;99.90
23609;DHT22;11982;50.810;4.442;2024-01-15T07:40:14;0.60;99.90
23609;DHT22;11982;50.810;4.442;2024-01-15T07:42:40;0.60;99.90
23609;DHT22;11982;50.810;4.442;2024-01-15T07:45:08;0.60;99.90
23609;DHT22;11982;50.810;4.442;2024-01-15T07:47:34;0.60;99.90
23609;DHT22;11982;50.810;4.442;2024-01-15T07:50:00;0.70;99.90
23609;DHT22;11982;50.810;4.442;2024-01-15T07:52:26;0.70;99.90
23609;DHT22;11982;50.810;4.442;2024-01-15T07:54:51;0.70;99.90
23609;DHT22;11982;50.810;4.442;2024-01-15T07:57:17;0.80;99.90
23609;DHT22;11982;50.810;4.442;2024-01-15T07:59:43;0.80;99.90
23609;DHT22;11982;50.810;4.442;2024-01-15T08:02:08;0.80;99.90
23609;DHT22;11982;50.810;4.442;2024-01-15T08:04:34;0.80;99.90
23609;DHT22;11982;50.810;4.442;2024-01-15T08:07:00;0.90;99.90
23609;DHT22;11982;50.810;4.442;2024-01-15T08:09:25;0.90;99.90
23609;DHT22;11982;50.810;4.442;2024-01-15T08:11:51;0.90;99.90
23609;DHT22;11982;50.810;4.442;2024-01-15T08:14:18;1.00;99.90
23609;DHT22;11982;50.810;4.442;2024-01-15T08:16:43;1.00;99.90
23609;DHT22;11982;50.810;4.442;2024-01-15T08:19:09;1.00;99.90
23609;DHT22;11982;50.810;4.442;2024-01-15T08:21:35;1.00;99.90
23609;DHT22;11982;50.810;4.442;2024-01-15T08:24:01;1.10;99.90
23609;DHT22;11982;50.810;4.442;2024-01-15T08:26:28;1.20;99.90
23609;DHT22;11982;50.810;4.442;2024-01-15T08:28:54;1.30;99.90
23609;DHT22;11982;50.810;4.442;2024-01-15T08:31:20;1.20;99.90
23609;DHT22;11982;50.810;4.442;2024-01-15T08:33:46;1.30;99.90
23609;DHT22;11982;50.810;4.442;2024-01-15T08:36:12;1.30;99.90
23609;DHT22;11982;50.810;4.442;2024-01-15T08:38:38;1.40;99.90
23609;DHT22;11982;50.810;4.442;2024-01-15T08:41:03;1.40;99.90
23609;DHT22;11982;50.810;4.442;2024-01-15T08:43:29;1.40;99.90
23609;DHT22;11982;50.810;4.442;2024-01-15T08:45:56;1.50;99.90
23609;DHT22;11982;50.810;4.442;2024-01-15T08:48:22;1.60;99.90
23609;DHT22;11982;50.810;4.442;2024-01-15T08:50:48;1.60;99.90
23609;DHT22;11982;50.810;4.442;2024-01-15T08:53:14;1.60;99.90
23609;DHT22;11982;50.810;4.442;2024-01-15T08:55:40;1.70;99.90
23609;DHT22;11982;50.810;4.442;2024-01-15T08:58:08;1.70;99.90
23609;DHT22;11982;50.810;4.442;2024-01-15T09:00:34;1.60;99.90
23609;DHT22;11982;50.810;4.442;2024-01-15T09:03:00;1.60;99.90
23609;DHT22;11982;50.810;4.442;2024-01-15T09:05:26;1.60;99.90
23609;DHT22;11982;50.810;4.442;2024-01-15T09:07:51;1.60;99.90
23609;DHT22;11982;50.810;4.442;2024-01-15T09:10:18;1.50;99.90
23609;DHT22;11982;50.810;4.442;2024-01-15T09:12:44;1.60;99.90
23609;DHT22;11982;50.810;4.442;2024-01-15T09:15:14;1.50;99.90
23609;DHT22;11982;50.810;4.442;2024-01-15T09:17:40;1.50;99.90
23609;DHT22;11982;50.810;4.442;2024-01-15T09:20:06;1.50;99.90
23609;DHT22;11982;50.810;4.442;2024-01-15T09:22:32;1.50;99.90
23609;DHT22;11982;50.810;4.442;2024-01-15T09:24:58;1.50;99.90
23609;DHT22;11982;50.810;4.442;2024-01-15T09:27:24;1.60;99.90
23609;DHT22;11982;50.810;4.442;2024-01-15T09:29:52;1.60;99.90
23609;DHT22;11982;50.810;4.442;2024-01-15T09:32:17;1.60;99.90
23609;DHT22;11982;50.810;4.442;2024-01-15T09:34:44;1.60;99.90
23609;DHT22;11982;50.810;4.442;2024-01-15T09:37:12;1.70;99.90
23609;DHT22;11982;50.810;4.442;2024-01-15T09:39:37;1.70;99.90
23609;DHT22;11982;50.810;4.442;2024-01-15T09:42:04;1.80;99.90
23609;DHT22;11982;50.810;4.442;2024-01-15T09:44:31;1.80;99.90
23609;DHT22;11982;50.810;4.442;2024-01-15T09:46:57;1.90;99.90
23609;DHT22;11982;50.810;4.442;2024-01-15T09:49:23;1.90;99.90
23609;DHT22;11982;50.810;4.442;2024-01-15T09:51:49;1.90;99.90
23609;DHT22;11982;50.810;4.442;2024-01-15T09:54:16;2.00;99.90
23609;DHT22;11982;50.810;4.442;2024-01-15T09:56:48;2.10;99.90
23609;DHT22;11982;50.810;4.442;2024-01-15T09:59:18;2.10;99.90
23609;DHT22;11982;50.810;4.442;2024-01-15T10:01:44;2.10;99.90
23609;DHT22;11982;50.810;4.442;2024-01-15T10:04:13;2.20;99.90
23609;DHT22;11982;50.810;4.442;2024-01-15T10:06:43;2.20;99.90
23609;DHT22;11982;50.810;4.442;2024-01-15T10:09:12;2.30;99.90
23609;DHT22;11982;50.810;4.442;2024-01-15T10:11:42;2.50;99.90
23609;DHT22;11982;50.810;4.442;2024-01-15T10:14:10;2.70;99.90
23609;DHT22;11982;50.810;4.442;2024-01-15T10:16:39;2.80;99.90
23609;DHT22;11982;50.810;4.442;2024-01-15T10:19:05;2.90;99.90
23609;DHT22;11982;50.810;4.442;2024-01-15T10:21:34;2.90;99.90
23609;DHT22;11982;50.810;4.442;2024-01-15T10:24:01;3.00;99.90
23609;DHT22;11982;50.810;4.442;2024-01-15T10:26:28;2.70;99.90
23609;DHT22;11982;50.810;4.442;2024-01-15T10:28:54;2.60;99.90
23609;DHT22;11982;50.810;4.442;2024-01-15T10:31:19;2.60;99.90
23609;DHT22;11982;50.810;4.442;2024-01-15T10:33:50;2.60;99.90
23609;DHT22;11982;50.810;4.442;2024-01-15T10:36:16;2.60;99.90
23609;DHT22;11982;50.810;4.442;2024-01-15T10:38:46;2.70;99.90
23609;DHT22;11982;50.810;4.442;2024-01-15T10:41:11;2.70;99.90
23609;DHT22;11982;50.810;4.442;2024-01-15T10:43:38;2.70;99.90
23609;DHT22;11982;50.810;4.442;2024-01-15T10:46:04;2.70;99.90
23609;DHT22;11982;50.810;4.442;2024-01-15T10:48:30;2.70;99.90
23609;DHT22;11982;50.810;4.442;2024-01-15T10:50:57;2.60;99.90
23609;DHT22;11982;50.810;4.442;2024-01-15T10:53:26;2.50;99.90
23609;DHT22;11982;50.810;4.442;2024-01-15T10:55:53;2.60;99.90
23609;DHT22;11982;50.810;4.442;2024-01-15T10:58:20;2.60;99.90
23609;DHT22;11982;50.810;4.442;2024-01-15T11:00:46;2.70;99.90
23609;DHT22;11982;50.810;4.442;2024-01-15T11:03:12;2.80;99.90
23609;DHT22;11982;50.810;4.442;2024-01-15T11:05:42;2.90;99.90
23609;DHT22;11982;50.810;4.442;2024-01-15T11:08:09;3.00;99.90
23609;DHT22;11982;50.810;4.442;2024-01-15T11:13:14;3.10;99.90
23609;DHT22;11982;50.810;4.442;2024-01-15T11:18:28;3.40;99.90
23609;DHT22;11982;50.810;4.442;2024-01-15T11:23:50;3.70;99.90
23609;DHT22;11982;50.810;4.442;2024-01-15T11:34:16;3.90;99.90
23609;DHT22;11982;50.810;4.442;2024-01-15T11:41:58;3.90;99.90
23609;DHT22;11982;50.810;4.442;2024-01-15T11:44:25;3.90;99.90
23609;DHT22;11982;50.810;4.442;2024-01-15T11:47:02;3.80;99.90
23609;DHT22;11982;50.810;4.442;2024-01-15T11:51:57;3.70;99.90
23609;DHT22;11982;50.810;4.442;2024-01-15T11:54:24;3.70;99.90
23609;DHT22;11982;50.810;4.442;2024-01-15T11:56:51;3.80;99.90
23609;DHT22;11982;50.810;4.442;2024-01-15T11:59:17;4.00;99.90
23609;DHT22;11982;50.810;4.442;2024-01-15T12:01:44;4.10;99.90
23609;DHT22;11982;50.810;4.442;2024-01-15T12:04:10;4.10;99.90
23609;DHT22;11982;50.810;4.442;2024-01-15T12:06:36;4.00;99.90
23609;DHT22;11982;50.810;4.442;2024-01-15T12:09:08;3.90;99.90
23609;DHT22;11982;50.810;4.442;2024-01-15T12:11:35;4.00;99.90
23609;DHT22;11982;50.810;4.442;2024-01-15T12:14:01;4.10;99.90
23609;DHT22;11982;50.810;4.442;2024-01-15T12:16:27;4.00;99.90
23609;DHT22;11982;50.810;4.442;2024-01-15T12:18:53;4.00;99.90
23609;DHT22;11982;50.810;4.442;2024-01-15T12:21:26;4.00;99.90
23609;DHT22;11982;50.810;4.442;2024-01-15T12:23:52;4.10;99.90
23609;DHT22;11982;50.810;4.442;2024-01-15T12:26:19;4.10;99.90
23609;DHT22;11982;50.810;4.442;2024-01-15T12:28:45;4.10;99.90
23609;DHT22;11982;50.810;4.442;2024-01-15T12:31:11;4.10;99.90
23609;DHT22;11982;50.810;4.442;2024-01-15T12:33:36;4.00;99.90
23609;DHT22;11982;50.810;4.442;2024-01-15T12:36:04;4.00;99.90
23609;DHT22;11982;50.810;4.442;2024-01-15T12:38:29;4.10;99.90
23609;DHT22;11982;50.810;4.442;2024-01-15T12:40:55;4.20;99.90
23609;DHT22;11982;50.810;4.442;2024-01-15T12:43:20;4.30;99.90
23609;DHT22;11982;50.810;4.442;2024-01-15T12:45:46;4.30;99.90
23609;DHT22;11982;50.810;4.442;2024-01-15T12:48:12;4.30;99.90
23609;DHT22;11982;50.810;4.442;2024-01-15T12:50:42;4.20;99.90
23609;DHT22;11982;50.810;4.442;2024-01-15T12:53:08;4.00;99.90
23609;DHT22;11982;50.810;4.442;2024-01-15T12:55:34;4.00;99.90
23609;DHT22;11982;50.810;4.442;2024-01-15T12:58:00;3.90;99.90
23609;DHT22;11982;50.810;4.442;2024-01-15T13:00:25;3.80;99.90
23609;DHT22;11982;50.810;4.442;2024-01-15T13:02:51;3.70;99.90
23609;DHT22;11982;50.810;4.442;2024-01-15T13:05:17;3.70;99.90
23609;DHT22;11982;50.810;4.442;2024-01-15T13:07:43;3.70;99.90
23609;DHT22;11982;50.810;4.442;2024-01-15T13:10:11;3.80;99.90
23609;DHT22;11982;50.810;4.442;2024-01-15T13:12:37;3.80;99.90
23609;DHT22;11982;50.810;4.442;2024-01-15T13:15:03;3.60;99.90
23609;DHT22;11982;50.810;4.442;2024-01-15T13:17:29;3.60;99.90
23609;DHT22;11982;50.810;4.442;2024-01-15T13:19:55;3.70;99.90
23609;DHT22;11982;50.810;4.442;2024-01-15T13:22:20;3.60;99.90
23609;DHT22;11982;50.810;4.442;2024-01-15T13:24:46;3.60;99.90
23609;DHT22;11982;50.810;4.442;2024-01-15T13:27:12;3.50;99.90
23609;DHT22;11982;50.810;4.442;2024-01-15T13:29:38;3.70;99.90
23609;DHT22;11982;50.810;4.442;2024-01-15T13:32:04;3.80;99.90
23609;DHT22;11982;50.810;4.442;2024-01-15T13:34:30;3.80;99.90
23609;DHT22;11982;50.810;4.442;2024-01-15T13:36:56;3.80;99.90
23609;DHT22;11982;50.810;4.442;2024-01-15T13:39:22;3.80;99.90
23609;DHT22;11982;50.810;4.442;2024-01-15T13:41:49;4.00;99.90
23609;DHT22;11982;50.810;4.442;2024-01-15T13:44:14;3.90;99.90
23609;DHT22;11982;50.810;4.442;2024-01-15T13:46:40;3.90;99.90
23609;DHT22;11982;50.810;4.442;2024-01-15T13:49:07;3.70;99.90
23609;DHT22;11982;50.810;4.442;2024-01-15T13:51:35;3.80;99.90
23609;DHT22;11982;50.810;4.442;2024-01-15T13:54:01;3.80;99.90
23609;DHT22;11982;50.810;4.442;2024-01-15T13:56:26;3.80;99.90
23609;DHT22;11982;50.810;4.442;2024-01-15T13:58:56;3.90;99.90
23609;DHT22;11982;50.810;4.442;2024-01-15T14:01:23;4.10;99.90
23609;DHT22;11982;50.810;4.442;2024-01-15T14:03:49;4.20;99.90
23609;DHT22;11982;50.810;4.442;2024-01-15T14:06:15;4.10;99.90
23609;DHT22;11982;50.810;4.442;2024-01-15T14:08:40;4.00;99.90
23609;DHT22;11982;50.810;4.442;2024-01-15T14:11:06;3.80;99.90
23609;DHT22;11982;50.810;4.442;2024-01-15T14:13:33;3.70;99.90
23609;DHT22;11982;50.810;4.442;2024-01-15T14:15:59;3.70;99.90
23609;DHT22;11982;50.810;4.442;2024-01-15T14:18:26;3.70;99.90
23609;DHT22;11982;50.810;4.442;2024-01-15T14:20:51;3.70;99.90
23609;DHT22;11982;50.810;4.442;2024-01-15T14:23:22;3.70;99.90
23609;DHT22;11982;50.810;4.442;2024-01-15T14:25:48;3.70;99.90
23609;DHT22;11982;50.810;4.442;2024-01-15T14:28:14;3.70;99.90
23609;DHT22;11982;50.810;4.442;2024-01-15T14:30:40;3.90;99.90
23609;DHT22;11982;50.810;4.442;2024-01-15T14:33:05;3.70;99.90
23609;DHT22;11982;50.810;4.442;2024-01-15T14:35:31;3.90;99.90
23609;DHT22;11982;50.810;4.442;2024-01-15T14:37:56;3.80;99.90
23609;DHT22;11982;50.810;4.442;2024-01-15T14:40:25;3.70;99.90
23609;DHT22;11982;50.810;4.442;2024-01-15T14:42:52;3.60;99.90
23609;DHT22;11982;50.810;4.442;2024-01-15T14:45:18;3.50;99.90
23609;DHT22;11982;50.810;4.442;2024-01-15T14:47:44;2.90;99.90
23609;DHT22;11982;50.810;4.442;2024-01-15T14:50:10;2.60;99.90
23609;DHT22;11982;50.810;4.442;2024-01-15T14:52:36;2.40;99.90
23609;DHT22;11982;50.810;4.442;2024-01-15T14:55:02;2.30;99.90
23609;DHT22;11982;50.810;4.442;2024-01-15T14:57:28;2.30;99.90
23609;DHT22;11982;50.810;4.442;2024-01-15T14:59:53;2.40;99.90
23609;DHT22;11982;50.810;4.442;2024-01-15T15:02:19;2.30;99.90
23609;DHT22;11982;50.810;4.442;2024-01-15T15:04:46;2.30;99.90
23609;DHT22;11982;50.810;4.442;2024-01-15T15:07:11;2.20;99.90
23609;DHT22;11982;50.810;4.442;2024-01-15T15:09:37;2.10;99.90
23609;DHT22;11982;50.810;4.442;2024-01-15T15:12:06;2.00;99.90
23609;DHT22;11982;50.810;4.442;2024-01-15T15:14:32;2.00;99.90
23609;DHT22;11982;50.810;4.442;2024-01-15T15:17:05;2.00;99.90
23609;DHT22;11982;50.810;4.442;2024-01-15T15:19:32;2.00;99.90
23609;DHT22;11982;50.810;4.442;2024-01-15T15:21:58;1.80;99.90
23609;DHT22;11982;50.810;4.442;2024-01-15T15:24:24;1.80;99.90
23609;DHT22;11982;50.810;4.442;2024-01-15T15:26:49;1.70;99.90
23609;DHT22;11982;50.810;4.442;2024-01-15T15:29:15;1.70;99.90
23609;DHT22;11982;50.810;4.442;2024-01-15T15:31:42;1.60;99.90
23609;DHT22;11982;50.810;4.442;2024-01-15T15:34:08;1.60;99.90
23609;DHT22;11982;50.810;4.442;2024-01-15T15:36:34;1.50;99.90
23609;DHT22;11982;50.810;4.442;2024-01-15T15:39:00;1.60;99.90
23609;DHT22;11982;50.810;4.442;2024-01-15T15:41:26;1.60;99.90
23609;DHT22;11982;50.810;4.442;2024-01-15T15:43:53;1.60;99.90
23609;DHT22;11982;50.810;4.442;2024-01-15T15:46:19;1.70;99.90
23609;DHT22;11982;50.810;4.442;2024-01-15T15:48:45;1.70;99.90
23609;DHT22;11982;50.810;4.442;2024-01-15T15:51:10;1.60;99.90
23609;DHT22;11982;50.810;4.442;2024-01-15T15:53:36;1.60;99.90
23609;DHT22;11982;50.810;4.442;2024-01-15T15:56:02;1.60;99.90
23609;DHT22;11982;50.810;4.442;2024-01-15T15:58:28;1.60;99.90
23609;DHT22;11982;50.810;4.442;2024-01-15T16:00:53;1.60;99.90
23609;DHT22;11982;50.810;4.442;2024-01-15T16:03:19;1.50;99.90